sensor_id;sensor_type;location;lat;lon;timestamp;P1;durP1;ratioP1;P2;durP2;ratioP2
16037;SDS011;8123;50.906;6.172;2023-04-30T00:00:31;52.00;;;29.20;;
16037;SDS011;8123;50.906;6.172;2023-04-30T00:02:57;49.97;;;28.60;;
16037;SDS011;8123;50.906;6.172;2023-04-30T00:05:22;55.07;;;28.63;;
16037;SDS011;8123;50.906;6.172;2023-04-30T00:07:48;54.67;;;29.20;;
16037;SDS011;8123;50.906;6.172;2023-04-30T00:10:14;50.30;;;26.03;;
16037;SDS011;8123;50.906;6.172;2023-04-30T00:12:39;58.03;;;29.43;;
16037;SDS011;8123;50.906;6.172;2023-04-30T00:15:05;48.73;;;29.57;;
16037;SDS011;8123;50.906;6.172;2023-04-30T00:17:31;53.90;;;29.50;;
16037;SDS011;8123;50.906;6.172;2023-04-30T00:19:57;44.40;;;28.30;;
16037;SDS011;8123;50.906;6.172;2023-04-30T00:22:22;51.77;;;30.30;;
16037;SDS011;8123;50.906;6.172;2023-04-30T00:24:48;44.20;;;26.70;;
16037;SDS011;8123;50.906;6.172;2023-04-30T00:27:13;41.63;;;24.93;;
16037;SDS011;8123;50.906;6.172;2023-04-30T00:29:39;41.50;;;22.73;;
16037;SDS011;8123;50.906;6.172;2023-04-30T00:32:05;36.20;;;23.10;;
16037;SDS011;8123;50.906;6.172;2023-04-30T00:34:30;37.50;;;21.90;;
16037;SDS011;8123;50.906;6.172;2023-04-30T00:36:56;39.73;;;23.10;;
16037;SDS011;8123;50.906;6.172;2023-04-30T00:39:22;38.20;;;22.30;;
16037;SDS011;8123;50.906;6.172;2023-04-30T00:41:47;39.77;;;22.90;;
16037;SDS011;8123;50.906;6.172;2023-04-30T00:44:13;39.13;;;24.20;;
16037;SDS011;8123;50.906;6.172;2023-04-30T00:46:38;43.00;;;24.83;;
16037;SDS011;8123;50.906;6.172;2023-04-30T00:49:04;42.43;;;25.20;;
16037;SDS011;8123;50.906;6.172;2023-04-30T00:51:30;45.60;;;25.70;;
16037;SDS011;8123;50.906;6.172;2023-04-30T00:53:58;45.37;;;25.33;;
16037;SDS011;8123;50.906;6.172;2023-04-30T00:56:26;40.43;;;24.60;;
16037;SDS011;8123;50.906;6.172;2023-04-30T00:58:55;45.57;;;25.90;;
16037;SDS011;8123;50.906;6.172;2023-04-30T01:01:25;43.97;;;25.43;;
16037;SDS011;8123;50.906;6.172;2023-04-30T01:03:53;52.00;;;28.50;;
16037;SDS011;8123;50.906;6.172;2023-04-30T01:06:19;50.33;;;27.97;;
16037;SDS011;8123;50.906;6.172;2023-04-30T01:08:45;50.30;;;27.20;;
16037;SDS011;8123;50.906;6.172;2023-04-30T01:16:47;50.30;;;26.97;;
16037;SDS011;8123;50.906;6.172;2023-04-30T01:22:02;51.80;;;28.30;;
16037;SDS011;8123;50.906;6.172;2023-04-30T01:29:56;55.57;;;27.37;;
16037;SDS011;8123;50.906;6.172;2023-04-30T01:32:23;46.90;;;27.40;;
16037;SDS011;8123;50.906;6.172;2023-04-30T01:34:48;46.13;;;24.10;;
16037;SDS011;8123;50.906;6.172;2023-04-30T01:39:47;51.10;;;26.90;;
16037;SDS011;8123;50.906;6.172;2023-04-30T01:45:39;41.73;;;24.80;;
16037;SDS011;8123;50.906;6.172;2023-04-30T01:53:41;46.70;;;24.70;;
16037;SDS011;8123;50.906;6.172;2023-04-30T01:56:15;41.53;;;23.23;;
16037;SDS011;8123;50.906;6.172;2023-04-30T01:58:51;41.77;;;24.13;;
16037;SDS011;8123;50.906;6.172;2023-04-30T02:01:27;49.10;;;21.60;;
16037;SDS011;8123;50.906;6.172;2023-04-30T02:03:55;40.67;;;21.93;;
16037;SDS011;8123;50.906;6.172;2023-04-30T02:06:21;40.50;;;21.20;;
16037;SDS011;8123;50.906;6.172;2023-04-30T02:08:52;39.53;;;21.07;;
16037;SDS011;8123;50.906;6.172;2023-04-30T02:11:18;43.27;;;21.80;;
16037;SDS011;8123;50.906;6.172;2023-04-30T02:13:44;35.33;;;21.30;;
16037;SDS011;8123;50.906;6.172;2023-04-30T02:16:09;39.13;;;20.33;;
16037;SDS011;8123;50.906;6.172;2023-04-30T02:18:35;43.30;;;21.07;;
16037;SDS011;8123;50.906;6.172;2023-04-30T02:21:01;35.67;;;21.27;;
16037;SDS011;8123;50.906;6.172;2023-04-30T02:23:26;37.33;;;20.97;;
16037;SDS011;8123;50.906;6.172;2023-04-30T02:25:52;35.83;;;20.17;;
16037;SDS011;8123;50.906;6.172;2023-04-30T02:28:17;40.23;;;21.97;;
16037;SDS011;8123;50.906;6.172;2023-04-30T02:30:43;41.23;;;19.20;;
16037;SDS011;8123;50.906;6.172;2023-04-30T02:33:08;44.20;;;21.30;;
16037;SDS011;8123;50.906;6.172;2023-04-30T02:35:36;41.80;;;21.80;;
16037;SDS011;8123;50.906;6.172;2023-04-30T02:38:02;37.77;;;20.33;;
16037;SDS011;8123;50.906;6.172;2023-04-30T02:40:27;38.37;;;20.57;;
16037;SDS011;8123;50.906;6.172;2023-04-30T02:42:53;54.73;;;20.10;;
16037;SDS011;8123;50.906;6.172;2023-04-30T02:45:20;35.67;;;21.00;;
16037;SDS011;8123;50.906;6.172;2023-04-30T02:47:46;43.27;;;21.30;;
16037;SDS011;8123;50.906;6.172;2023-04-30T02:50:12;30.70;;;19.23;;
16037;SDS011;8123;50.906;6.172;2023-04-30T02:52:38;40.57;;;19.90;;
16037;SDS011;8123;50.906;6.172;2023-04-30T02:55:04;35.20;;;19.70;;
16037;SDS011;8123;50.906;6.172;2023-04-30T02:57:30;56.80;;;21.77;;
16037;SDS011;8123;50.906;6.172;2023-04-30T02:59:56;39.00;;;21.73;;
16037;SDS011;8123;50.906;6.172;2023-04-30T03:02:21;39.23;;;20.23;;
16037;SDS011;8123;50.906;6.172;2023-04-30T03:04:47;38.47;;;21.67;;
16037;SDS011;8123;50.906;6.172;2023-04-30T03:07:13;37.33;;;20.77;;
16037;SDS011;8123;50.906;6.172;2023-04-30T03:09:39;39.77;;;20.23;;
16037;SDS011;8123;50.906;6.172;2023-04-30T03:12:05;46.70;;;22.40;;
16037;SDS011;8123;50.906;6.172;2023-04-30T03:14:30;43.27;;;23.10;;
16037;SDS011;8123;50.906;6.172;2023-04-30T03:16:56;45.70;;;23.17;;
16037;SDS011;8123;50.906;6.172;2023-04-30T03:19:22;45.50;;;22.60;;
16037;SDS011;8123;50.906;6.172;2023-04-30T03:21:49;48.23;;;23.40;;
16037;SDS011;8123;50.906;6.172;2023-04-30T03:24:16;53.47;;;22.27;;
16037;SDS011;8123;50.906;6.172;2023-04-30T03:26:42;42.97;;;24.03;;
16037;SDS011;8123;50.906;6.172;2023-04-30T03:29:08;45.47;;;24.73;;
16037;SDS011;8123;50.906;6.172;2023-04-30T03:31:33;41.37;;;23.47;;
16037;SDS011;8123;50.906;6.172;2023-04-30T03:33:59;53.03;;;23.70;;
16037;SDS011;8123;50.906;6.172;2023-04-30T03:36:24;45.20;;;23.53;;
16037;SDS011;8123;50.906;6.172;2023-04-30T03:38:51;48.77;;;24.53;;
16037;SDS011;8123;50.906;6.172;2023-04-30T03:41:17;50.10;;;27.03;;
16037;SDS011;8123;50.906;6.172;2023-04-30T03:43:43;49.10;;;24.13;;
16037;SDS011;8123;50.906;6.172;2023-04-30T03:46:08;54.17;;;26.70;;
16037;SDS011;8123;50.906;6.172;2023-04-30T03:48:34;50.20;;;25.27;;
16037;SDS011;8123;50.906;6.172;2023-04-30T03:51:00;42.70;;;23.43;;
16037;SDS011;8123;50.906;6.172;2023-04-30T03:53:25;58.40;;;22.67;;
16037;SDS011;8123;50.906;6.172;2023-04-30T03:55:51;50.47;;;24.53;;
16037;SDS011;8123;50.906;6.172;2023-04-30T03:58:18;51.00;;;25.40;;
16037;SDS011;8123;50.906;6.172;2023-04-30T04:00:43;46.60;;;25.30;;
16037;SDS011;8123;50.906;6.172;2023-04-30T04:03:13;49.53;;;23.77;;
16037;SDS011;8123;50.906;6.172;2023-04-30T04:05:39;46.03;;;23.43;;
16037;SDS011;8123;50.906;6.172;2023-04-30T04:08:05;49.20;;;24.97;;
16037;SDS011;8123;50.906;6.172;2023-04-30T04:10:31;58.30;;;26.03;;
16037;SDS011;8123;50.906;6.172;2023-04-30T04:12:58;61.17;;;27.13;;
16037;SDS011;8123;50.906;6.172;2023-04-30T04:15:24;50.23;;;24.30;;
16037;SDS011;8123;50.906;6.172;2023-04-30T04:17:50;56.60;;;26.70;;
16037;SDS011;8123;50.906;6.172;2023-04-30T04:20:15;58.97;;;24.90;;
16037;SDS011;8123;50.906;6.172;2023-04-30T04:22:41;57.30;;;29.00;;
16037;SDS011;8123;50.906;6.172;2023-04-30T04:25:07;53.70;;;25.83;;
16037;SDS011;8123;50.906;6.172;2023-04-30T04:27:33;56.60;;;27.73;;
16037;SDS011;8123;50.906;6.172;2023-04-30T04:30:00;61.80;;;28.23;;
16037;SDS011;8123;50.906;6.172;2023-04-30T04:32:26;57.80;;;26.67;;
16037;SDS011;8123;50.906;6.172;2023-04-30T04:34:54;53.13;;;27.77;;
16037;SDS011;8123;50.906;6.172;2023-04-30T04:37:21;54.47;;;27.80;;
16037;SDS011;8123;50.906;6.172;2023-04-30T04:39:46;55.63;;;28.57;;
16037;SDS011;8123;50.906;6.172;2023-04-30T04:42:13;49.43;;;27.43;;
16037;SDS011;8123;50.906;6.172;2023-04-30T04:44:40;47.47;;;25.83;;
16037;SDS011;8123;50.906;6.172;2023-04-30T04:47:06;47.60;;;25.93;;
16037;SDS011;8123;50.906;6.172;2023-04-30T04:49:34;55.20;;;26.90;;
16037;SDS011;8123;50.906;6.172;2023-04-30T04:52:00;49.93;;;27.20;;
16037;SDS011;8123;50.906;6.172;2023-04-30T04:54:26;60.07;;;27.20;;
16037;SDS011;8123;50.906;6.172;2023-04-30T04:56:51;56.67;;;27.40;;
16037;SDS011;8123;50.906;6.172;2023-04-30T04:59:17;54.73;;;27.33;;
16037;SDS011;8123;50.906;6.172;2023-04-30T05:01:43;68.00;;;28.10;;
16037;SDS011;8123;50.906;6.172;2023-04-30T05:04:08;53.50;;;27.77;;
16037;SDS011;8123;50.906;6.172;2023-04-30T05:06:34;55.00;;;27.60;;
16037;SDS011;8123;50.906;6.172;2023-04-30T05:09:00;58.83;;;26.37;;
16037;SDS011;8123;50.906;6.172;2023-04-30T05:11:26;62.23;;;26.30;;
16037;SDS011;8123;50.906;6.172;2023-04-30T05:13:52;63.50;;;28.37;;
16037;SDS011;8123;50.906;6.172;2023-04-30T05:16:18;50.90;;;26.00;;
16037;SDS011;8123;50.906;6.172;2023-04-30T05:18:44;57.57;;;27.87;;
16037;SDS011;8123;50.906;6.172;2023-04-30T05:21:09;56.07;;;25.93;;
16037;SDS011;8123;50.906;6.172;2023-04-30T05:23:35;48.13;;;26.30;;
16037;SDS011;8123;50.906;6.172;2023-04-30T05:26:01;53.00;;;26.90;;
16037;SDS011;8123;50.906;6.172;2023-04-30T05:28:27;49.57;;;25.30;;
16037;SDS011;8123;50.906;6.172;2023-04-30T05:30:52;54.00;;;24.90;;
16037;SDS011;8123;50.906;6.172;2023-04-30T05:33:18;55.90;;;23.53;;
16037;SDS011;8123;50.906;6.172;2023-04-30T05:35:45;49.87;;;23.40;;
16037;SDS011;8123;50.906;6.172;2023-04-30T05:38:10;47.00;;;24.90;;
16037;SDS011;8123;50.906;6.172;2023-04-30T05:40:36;51.50;;;26.27;;
16037;SDS011;8123;50.906;6.172;2023-04-30T05:43:02;50.03;;;24.63;;
16037;SDS011;8123;50.906;6.172;2023-04-30T05:45:27;44.63;;;22.63;;
16037;SDS011;8123;50.906;6.172;2023-04-30T05:47:53;43.63;;;23.17;;
16037;SDS011;8123;50.906;6.172;2023-04-30T05:50:19;44.10;;;22.37;;
16037;SDS011;8123;50.906;6.172;2023-04-30T05:52:45;44.13;;;23.20;;
16037;SDS011;8123;50.906;6.172;2023-04-30T05:55:10;43.70;;;23.67;;
16037;SDS011;8123;50.906;6.172;2023-04-30T05:57:36;50.10;;;26.17;;
16037;SDS011;8123;50.906;6.172;2023-04-30T06:00:02;45.50;;;23.57;;
16037;SDS011;8123;50.906;6.172;2023-04-30T06:02:30;48.37;;;24.03;;
16037;SDS011;8123;50.906;6.172;2023-04-30T06:04:56;43.03;;;21.70;;
16037;SDS011;8123;50.906;6.172;2023-04-30T06:07:22;35.17;;;20.50;;
16037;SDS011;8123;50.906;6.172;2023-04-30T06:09:47;37.50;;;22.60;;
16037;SDS011;8123;50.906;6.172;2023-04-30T06:12:13;41.83;;;22.50;;
16037;SDS011;8123;50.906;6.172;2023-04-30T06:14:39;45.73;;;22.23;;
16037;SDS011;8123;50.906;6.172;2023-04-30T06:17:09;38.73;;;21.77;;
16037;SDS011;8123;50.906;6.172;2023-04-30T06:19:35;40.67;;;21.60;;
16037;SDS011;8123;50.906;6.172;2023-04-30T06:22:02;40.87;;;20.30;;
16037;SDS011;8123;50.906;6.172;2023-04-30T06:24:28;43.43;;;22.47;;
16037;SDS011;8123;50.906;6.172;2023-04-30T06:26:54;41.87;;;21.90;;
16037;SDS011;8123;50.906;6.172;2023-04-30T06:29:20;43.57;;;21.10;;
16037;SDS011;8123;50.906;6.172;2023-04-30T06:31:48;39.27;;;20.60;;
16037;SDS011;8123;50.906;6.172;2023-04-30T06:34:14;42.17;;;22.87;;
16037;SDS011;8123;50.906;6.172;2023-04-30T06:36:40;54.57;;;21.40;;
16037;SDS011;8123;50.906;6.172;2023-04-30T06:39:06;43.73;;;21.73;;
16037;SDS011;8123;50.906;6.172;2023-04-30T06:41:31;36.83;;;21.23;;
16037;SDS011;8123;50.906;6.172;2023-04-30T06:43:57;43.10;;;20.47;;
16037;SDS011;8123;50.906;6.172;2023-04-30T06:46:23;42.77;;;20.77;;
16037;SDS011;8123;50.906;6.172;2023-04-30T06:48:48;31.80;;;18.77;;
16037;SDS011;8123;50.906;6.172;2023-04-30T06:51:14;38.43;;;21.43;;
16037;SDS011;8123;50.906;6.172;2023-04-30T06:53:40;41.40;;;21.23;;
16037;SDS011;8123;50.906;6.172;2023-04-30T06:56:05;39.07;;;21.23;;
16037;SDS011;8123;50.906;6.172;2023-04-30T06:58:31;46.50;;;20.80;;
16037;SDS011;8123;50.906;6.172;2023-04-30T07:00:57;45.80;;;23.70;;
16037;SDS011;8123;50.906;6.172;2023-04-30T07:03:23;42.10;;;21.17;;
16037;SDS011;8123;50.906;6.172;2023-04-30T07:05:48;40.70;;;21.97;;
16037;SDS011;8123;50.906;6.172;2023-04-30T07:08:15;43.20;;;23.70;;
16037;SDS011;8123;50.906;6.172;2023-04-30T07:10:41;42.57;;;23.30;;
16037;SDS011;8123;50.906;6.172;2023-04-30T07:13:07;40.43;;;24.37;;
16037;SDS011;8123;50.906;6.172;2023-04-30T07:15:33;42.10;;;23.17;;
16037;SDS011;8123;50.906;6.172;2023-04-30T07:17:59;39.90;;;22.80;;
16037;SDS011;8123;50.906;6.172;2023-04-30T07:20:24;48.00;;;25.10;;
16037;SDS011;8123;50.906;6.172;2023-04-30T07:22:50;45.63;;;23.30;;
16037;SDS011;8123;50.906;6.172;2023-04-30T07:25:16;46.63;;;23.87;;
16037;SDS011;8123;50.906;6.172;2023-04-30T07:27:41;45.33;;;25.43;;
16037;SDS011;8123;50.906;6.172;2023-04-30T07:30:07;50.70;;;26.60;;
16037;SDS011;8123;50.906;6.172;2023-04-30T07:32:34;48.33;;;25.43;;
16037;SDS011;8123;50.906;6.172;2023-04-30T07:35:01;54.67;;;27.00;;
16037;SDS011;8123;50.906;6.172;2023-04-30T07:37:27;45.87;;;26.50;;
16037;SDS011;8123;50.906;6.172;2023-04-30T07:39:53;47.20;;;27.07;;
16037;SDS011;8123;50.906;6.172;2023-04-30T07:42:18;52.90;;;26.03;;
16037;SDS011;8123;50.906;6.172;2023-04-30T07:44:44;56.80;;;28.20;;
16037;SDS011;8123;50.906;6.172;2023-04-30T07:47:10;54.83;;;28.90;;
16037;SDS011;8123;50.906;6.172;2023-04-30T07:49:36;47.30;;;27.47;;
16037;SDS011;8123;50.906;6.172;2023-04-30T07:52:01;56.23;;;29.47;;
16037;SDS011;8123;50.906;6.172;2023-04-30T07:54:27;54.93;;;28.03;;
16037;SDS011;8123;50.906;6.172;2023-04-30T07:56:53;52.20;;;28.87;;
16037;SDS011;8123;50.906;6.172;2023-04-30T07:59:19;48.63;;;27.30;;
16037;SDS011;8123;50.906;6.172;2023-04-30T08:01:45;49.30;;;26.73;;
16037;SDS011;8123;50.906;6.172;2023-04-30T08:04:11;51.80;;;27.30;;
16037;SDS011;8123;50.906;6.172;2023-04-30T08:06:37;47.40;;;27.13;;
16037;SDS011;8123;50.906;6.172;2023-04-30T08:09:02;54.10;;;26.33;;
16037;SDS011;8123;50.906;6.172;2023-04-30T08:11:28;45.17;;;26.10;;
16037;SDS011;8123;50.906;6.172;2023-04-30T08:13:54;44.60;;;26.37;;
16037;SDS011;8123;50.906;6.172;2023-04-30T08:16:20;42.13;;;25.27;;
16037;SDS011;8123;50.906;6.172;2023-04-30T08:18:45;49.43;;;27.57;;
16037;SDS011;8123;50.906;6.172;2023-04-30T08:21:13;54.30;;;28.00;;
16037;SDS011;8123;50.906;6.172;2023-04-30T08:23:39;66.40;;;28.10;;
16037;SDS011;8123;50.906;6.172;2023-04-30T08:26:05;52.27;;;26.27;;
16037;SDS011;8123;50.906;6.172;2023-04-30T08:28:30;46.20;;;27.67;;
16037;SDS011;8123;50.906;6.172;2023-04-30T08:30:56;38.77;;;26.10;;
16037;SDS011;8123;50.906;6.172;2023-04-30T08:33:22;48.50;;;27.70;;
16037;SDS011;8123;50.906;6.172;2023-04-30T08:35:47;46.50;;;25.50;;
16037;SDS011;8123;50.906;6.172;2023-04-30T08:38:13;43.80;;;26.20;;
16037;SDS011;8123;50.906;6.172;2023-04-30T08:40:39;41.10;;;25.87;;
16037;SDS011;8123;50.906;6.172;2023-04-30T08:43:07;38.97;;;24.07;;
16037;SDS011;8123;50.906;6.172;2023-04-30T08:45:33;41.57;;;25.73;;
16037;SDS011;8123;50.906;6.172;2023-04-30T08:48:01;45.27;;;24.17;;
16037;SDS011;8123;50.906;6.172;2023-04-30T08:50:27;38.50;;;24.97;;
16037;SDS011;8123;50.906;6.172;2023-04-30T08:52:52;38.50;;;23.37;;
16037;SDS011;8123;50.906;6.172;2023-04-30T08:55:18;33.90;;;22.57;;
16037;SDS011;8123;50.906;6.172;2023-04-30T08:57:44;40.87;;;23.90;;
16037;SDS011;8123;50.906;6.172;2023-04-30T09:00:10;36.53;;;22.50;;
16037;SDS011;8123;50.906;6.172;2023-04-30T09:02:40;31.23;;;18.00;;
16037;SDS011;8123;50.906;6.172;2023-04-30T09:05:08;35.73;;;20.43;;
16037;SDS011;8123;50.906;6.172;2023-04-30T09:07:37;36.37;;;21.07;;
16037;SDS011;8123;50.906;6.172;2023-04-30T09:10:13;35.00;;;19.50;;
16037;SDS011;8123;50.906;6.172;2023-04-30T09:12:40;28.37;;;18.83;;
16037;SDS011;8123;50.906;6.172;2023-04-30T09:15:09;28.90;;;18.80;;
16037;SDS011;8123;50.906;6.172;2023-04-30T09:17:36;32.97;;;20.20;;
16037;SDS011;8123;50.906;6.172;2023-04-30T09:20:09;28.27;;;18.57;;
16037;SDS011;8123;50.906;6.172;2023-04-30T09:22:37;32.47;;;21.47;;
16037;SDS011;8123;50.906;6.172;2023-04-30T09:25:04;33.77;;;20.57;;
16037;SDS011;8123;50.906;6.172;2023-04-30T09:27:31;34.30;;;20.03;;
16037;SDS011;8123;50.906;6.172;2023-04-30T09:29:57;32.30;;;19.47;;
16037;SDS011;8123;50.906;6.172;2023-04-30T09:32:23;26.30;;;16.63;;
16037;SDS011;8123;50.906;6.172;2023-04-30T09:34:49;30.13;;;18.10;;
16037;SDS011;8123;50.906;6.172;2023-04-30T09:37:15;31.80;;;19.83;;
16037;SDS011;8123;50.906;6.172;2023-04-30T09:39:53;27.80;;;17.00;;
16037;SDS011;8123;50.906;6.172;2023-04-30T09:42:19;29.77;;;19.90;;
16037;SDS011;8123;50.906;6.172;2023-04-30T09:44:46;28.30;;;18.07;;
16037;SDS011;8123;50.906;6.172;2023-04-30T09:49:51;25.50;;;16.70;;
16037;SDS011;8123;50.906;6.172;2023-04-30T09:52:17;26.77;;;19.07;;
16037;SDS011;8123;50.906;6.172;2023-04-30T09:54:44;29.37;;;17.87;;
16037;SDS011;8123;50.906;6.172;2023-04-30T09:57:12;29.00;;;16.93;;
16037;SDS011;8123;50.906;6.172;2023-04-30T09:59:43;34.77;;;19.67;;
16037;SDS011;8123;50.906;6.172;2023-04-30T10:02:12;39.37;;;20.90;;
16037;SDS011;8123;50.906;6.172;2023-04-30T10:04:44;23.00;;;15.70;;
16037;SDS011;8123;50.906;6.172;2023-04-30T10:07:23;17.57;;;13.23;;
16037;SDS011;8123;50.906;6.172;2023-04-30T10:10:12;20.60;;;12.47;;
16037;SDS011;8123;50.906;6.172;2023-04-30T10:12:55;24.20;;;14.57;;
16037;SDS011;8123;50.906;6.172;2023-04-30T10:15:30;22.33;;;15.00;;
16037;SDS011;8123;50.906;6.172;2023-04-30T10:18:08;25.67;;;16.00;;
16037;SDS011;8123;50.906;6.172;2023-04-30T10:20:47;23.40;;;16.37;;
16037;SDS011;8123;50.906;6.172;2023-04-30T10:23:15;23.60;;;16.83;;
16037;SDS011;8123;50.906;6.172;2023-04-30T10:25:41;27.07;;;17.07;;
16037;SDS011;8123;50.906;6.172;2023-04-30T10:28:08;24.77;;;16.13;;
16037;SDS011;8123;50.906;6.172;2023-04-30T10:30:35;20.30;;;14.47;;
16037;SDS011;8123;50.906;6.172;2023-04-30T10:36:04;24.97;;;15.57;;
16037;SDS011;8123;50.906;6.172;2023-04-30T10:38:33;22.20;;;14.53;;
16037;SDS011;8123;50.906;6.172;2023-04-30T10:40:59;22.17;;;13.47;;
16037;SDS011;8123;50.906;6.172;2023-04-30T10:43:29;19.10;;;13.23;;
16037;SDS011;8123;50.906;6.172;2023-04-30T10:45:56;18.43;;;12.10;;
16037;SDS011;8123;50.906;6.172;2023-04-30T10:48:22;21.60;;;13.67;;
16037;SDS011;8123;50.906;6.172;2023-04-30T10:50:50;25.20;;;14.63;;
16037;SDS011;8123;50.906;6.172;2023-04-30T10:53:18;25.00;;;15.10;;
16037;SDS011;8123;50.906;6.172;2023-04-30T10:55:52;20.70;;;14.20;;
16037;SDS011;8123;50.906;6.172;2023-04-30T10:58:22;21.77;;;10.97;;
16037;SDS011;8123;50.906;6.172;2023-04-30T11:01:08;22.57;;;11.07;;
16037;SDS011;8123;50.906;6.172;2023-04-30T11:03:42;18.93;;;10.23;;
16037;SDS011;8123;50.906;6.172;2023-04-30T11:06:29;16.80;;;10.23;;
16037;SDS011;8123;50.906;6.172;2023-04-30T11:09:33;20.23;;;10.97;;
16037;SDS011;8123;50.906;6.172;2023-04-30T11:12:10;13.90;;;8.80;;
16037;SDS011;8123;50.906;6.172;2023-04-30T11:14:38;15.50;;;9.50;;
16037;SDS011;8123;50.906;6.172;2023-04-30T11:17:06;16.90;;;8.07;;
16037;SDS011;8123;50.906;6.172;2023-04-30T11:19:33;14.33;;;8.80;;
16037;SDS011;8123;50.906;6.172;2023-04-30T11:27:20;10.50;;;7.27;;
16037;SDS011;8123;50.906;6.172;2023-04-30T11:29:53;11.77;;;8.40;;
16037;SDS011;8123;50.906;6.172;2023-04-30T11:32:20;12.67;;;9.90;;
16037;SDS011;8123;50.906;6.172;2023-04-30T11:34:50;10.07;;;7.50;;
16037;SDS011;8123;50.906;6.172;2023-04-30T11:37:31;12.47;;;7.30;;
16037;SDS011;8123;50.906;6.172;2023-04-30T11:40:01;8.90;;;7.73;;
16037;SDS011;8123;50.906;6.172;2023-04-30T11:42:31;7.90;;;6.47;;
16037;SDS011;8123;50.906;6.172;2023-04-30T11:45:10;8.00;;;6.53;;
16037;SDS011;8123;50.906;6.172;2023-04-30T11:47:37;7.03;;;6.33;;
16037;SDS011;8123;50.906;6.172;2023-04-30T11:50:05;7.83;;;6.90;;
16037;SDS011;8123;50.906;6.172;2023-04-30T11:52:36;7.10;;;6.40;;
16037;SDS011;8123;50.906;6.172;2023-04-30T11:55:06;7.10;;;6.10;;
16037;SDS011;8123;50.906;6.172;2023-04-30T11:57:42;6.60;;;5.93;;
16037;SDS011;8123;50.906;6.172;2023-04-30T12:00:13;7.00;;;5.80;;
16037;SDS011;8123;50.906;6.172;2023-04-30T12:02:44;27.40;;;5.33;;
16037;SDS011;8123;50.906;6.172;2023-04-30T12:05:11;7.80;;;5.40;;
16037;SDS011;8123;50.906;6.172;2023-04-30T12:07:48;11.80;;;5.87;;
16037;SDS011;8123;50.906;6.172;2023-04-30T12:10:16;7.60;;;6.20;;
16037;SDS011;8123;50.906;6.172;2023-04-30T12:12:43;6.80;;;4.90;;
16037;SDS011;8123;50.906;6.172;2023-04-30T12:15:16;6.80;;;6.13;;
16037;SDS011;8123;50.906;6.172;2023-04-30T12:17:51;6.93;;;6.20;;
16037;SDS011;8123;50.906;6.172;2023-04-30T12:20:18;10.40;;;7.73;;
16037;SDS011;8123;50.906;6.172;2023-04-30T12:22:45;8.00;;;6.13;;
16037;SDS011;8123;50.906;6.172;2023-04-30T12:25:21;9.37;;;7.47;;
16037;SDS011;8123;50.906;6.172;2023-04-30T12:27:48;10.13;;;8.30;;
16037;SDS011;8123;50.906;6.172;2023-04-30T12:30:18;9.40;;;7.90;;
16037;SDS011;8123;50.906;6.172;2023-04-30T12:32:47;10.50;;;7.33;;
16037;SDS011;8123;50.906;6.172;2023-04-30T12:35:15;11.23;;;8.77;;
16037;SDS011;8123;50.906;6.172;2023-04-30T12:37:42;10.50;;;7.90;;
16037;SDS011;8123;50.906;6.172;2023-04-30T12:40:09;9.80;;;7.97;;
16037;SDS011;8123;50.906;6.172;2023-04-30T12:42:36;8.70;;;7.70;;
16037;SDS011;8123;50.906;6.172;2023-04-30T12:45:02;11.07;;;8.60;;
16037;SDS011;8123;50.906;6.172;2023-04-30T12:47:28;8.27;;;7.37;;
16037;SDS011;8123;50.906;6.172;2023-04-30T12:49:54;10.03;;;8.73;;
16037;SDS011;8123;50.906;6.172;2023-04-30T12:52:22;12.13;;;8.30;;
16037;SDS011;8123;50.906;6.172;2023-04-30T12:54:50;8.70;;;7.70;;
16037;SDS011;8123;50.906;6.172;2023-04-30T12:57:16;9.30;;;8.40;;
16037;SDS011;8123;50.906;6.172;2023-04-30T13:02:13;11.87;;;7.60;;
16037;SDS011;8123;50.906;6.172;2023-04-30T13:04:39;9.60;;;6.40;;
16037;SDS011;8123;50.906;6.172;2023-04-30T13:07:06;6.37;;;5.77;;
16037;SDS011;8123;50.906;6.172;2023-04-30T13:09:33;7.53;;;6.83;;
16037;SDS011;8123;50.906;6.172;2023-04-30T13:11:59;7.93;;;6.90;;
16037;SDS011;8123;50.906;6.172;2023-04-30T13:14:25;7.60;;;6.77;;
16037;SDS011;8123;50.906;6.172;2023-04-30T13:16:51;6.70;;;6.00;;
16037;SDS011;8123;50.906;6.172;2023-04-30T13:19:17;7.77;;;6.50;;
16037;SDS011;8123;50.906;6.172;2023-04-30T13:21:43;6.67;;;5.40;;
16037;SDS011;8123;50.906;6.172;2023-04-30T13:24:09;6.77;;;5.60;;
16037;SDS011;8123;50.906;6.172;2023-04-30T13:26:35;10.17;;;7.00;;
16037;SDS011;8123;50.906;6.172;2023-04-30T13:29:01;7.23;;;5.90;;
16037;SDS011;8123;50.906;6.172;2023-04-30T13:31:28;6.20;;;5.60;;
16037;SDS011;8123;50.906;6.172;2023-04-30T13:33:54;6.93;;;5.67;;
16037;SDS011;8123;50.906;6.172;2023-04-30T13:36:20;8.47;;;4.83;;
16037;SDS011;8123;50.906;6.172;2023-04-30T13:38:45;5.43;;;4.80;;
16037;SDS011;8123;50.906;6.172;2023-04-30T13:41:11;4.80;;;4.37;;
16037;SDS011;8123;50.906;6.172;2023-04-30T13:43:37;8.23;;;4.60;;
16037;SDS011;8123;50.906;6.172;2023-04-30T13:46:06;4.70;;;4.30;;
16037;SDS011;8123;50.906;6.172;2023-04-30T13:48:32;5.70;;;5.10;;
16037;SDS011;8123;50.906;6.172;2023-04-30T13:50:59;5.87;;;4.80;;
16037;SDS011;8123;50.906;6.172;2023-04-30T13:53:24;6.23;;;4.43;;
16037;SDS011;8123;50.906;6.172;2023-04-30T13:55:51;6.93;;;5.10;;
16037;SDS011;8123;50.906;6.172;2023-04-30T13:58:17;5.17;;;4.67;;
16037;SDS011;8123;50.906;6.172;2023-04-30T14:00:43;5.80;;;4.90;;
16037;SDS011;8123;50.906;6.172;2023-04-30T14:03:09;10.30;;;4.33;;
16037;SDS011;8123;50.906;6.172;2023-04-30T14:05:35;6.83;;;5.03;;
16037;SDS011;8123;50.906;6.172;2023-04-30T14:08:01;6.03;;;4.17;;
16037;SDS011;8123;50.906;6.172;2023-04-30T14:10:28;5.10;;;4.60;;
16037;SDS011;8123;50.906;6.172;2023-04-30T14:12:53;5.90;;;4.27;;
16037;SDS011;8123;50.906;6.172;2023-04-30T14:15:19;4.90;;;4.03;;
16037;SDS011;8123;50.906;6.172;2023-04-30T14:17:45;3.53;;;3.27;;
16037;SDS011;8123;50.906;6.172;2023-04-30T14:20:11;3.57;;;3.37;;
16037;SDS011;8123;50.906;6.172;2023-04-30T14:22:37;5.70;;;3.90;;
16037;SDS011;8123;50.906;6.172;2023-04-30T14:25:03;6.67;;;4.50;;
16037;SDS011;8123;50.906;6.172;2023-04-30T14:27:29;8.70;;;6.20;;
16037;SDS011;8123;50.906;6.172;2023-04-30T14:29:55;10.23;;;7.63;;
16037;SDS011;8123;50.906;6.172;2023-04-30T14:32:23;8.13;;;4.83;;
16037;SDS011;8123;50.906;6.172;2023-04-30T14:34:49;8.60;;;5.03;;
16037;SDS011;8123;50.906;6.172;2023-04-30T14:37:15;5.77;;;4.93;;
16037;SDS011;8123;50.906;6.172;2023-04-30T14:39:41;5.07;;;4.67;;
16037;SDS011;8123;50.906;6.172;2023-04-30T14:42:07;5.23;;;4.50;;
16037;SDS011;8123;50.906;6.172;2023-04-30T14:44:33;5.27;;;4.60;;
16037;SDS011;8123;50.906;6.172;2023-04-30T14:47:01;5.20;;;4.70;;
16037;SDS011;8123;50.906;6.172;2023-04-30T14:49:27;4.60;;;4.20;;
16037;SDS011;8123;50.906;6.172;2023-04-30T14:51:53;7.63;;;6.00;;
16037;SDS011;8123;50.906;6.172;2023-04-30T14:54:19;4.70;;;4.30;;
16037;SDS011;8123;50.906;6.172;2023-04-30T14:56:45;5.93;;;3.63;;
16037;SDS011;8123;50.906;6.172;2023-04-30T14:59:11;11.80;;;3.77;;
16037;SDS011;8123;50.906;6.172;2023-04-30T15:01:37;4.20;;;3.40;;
16037;SDS011;8123;50.906;6.172;2023-04-30T15:04:03;4.27;;;3.00;;
16037;SDS011;8123;50.906;6.172;2023-04-30T15:06:29;6.90;;;3.47;;
16037;SDS011;8123;50.906;6.172;2023-04-30T15:08:55;4.50;;;4.10;;
16037;SDS011;8123;50.906;6.172;2023-04-30T15:11:21;6.17;;;3.80;;
16037;SDS011;8123;50.906;6.172;2023-04-30T15:13:48;4.33;;;3.00;;
16037;SDS011;8123;50.906;6.172;2023-04-30T15:16:14;4.40;;;3.23;;
16037;SDS011;8123;50.906;6.172;2023-04-30T15:18:41;4.20;;;3.90;;